Terminal Aerodrome Forecast
Issued by NWS

Home | Current Version | Previous Version | Text Only | Print | Product List | Glossary On
Versions: 1 2 3 4 5 6 7 8 9 10 11 12 13 14 15 16 17 18
000
FTUS44 KLIX 021100
TAFMCB
TAF
KMCB 021120Z 0212/0312 VRB03KT 2SM BR OVC003
     FM021500 00000KT P6SM OVC008
     FM030300 VRB03KT P6SM OVC003=

USA.gov is the U.S. government's official web portal to all federal, state and local government web resources and services.